Time;durP1;ratioP1;P1;durP2;ratioP2;P2;SDS_P1;SDS_P2;PMS_P1;PMS_P2;Temp;Humidity;BMP_temperature;BMP_pressure;BME280_temperature;BME280_humidity;BME280_pressure;Samples;Min_cycle;Max_cycle;Signal;HPM_P1;HPM_P2
2022/10/15 00:00:42;;;;;;;0.40;0.03;;;14.80;88.90;;;;;;5035220;28;20052;-77
2022/10/15 00:03:08;;;;;;;0.00;0.00;;;14.70;88.90;;;;;;5034656;28;20366;-76
2022/10/15 00:05:39;;;;;;;0.28;0.00;;;14.80;90.00;;;;;;5034734;28;20493;-76
2022/10/15 00:08:06;;;;;;;0.08;0.00;;;14.80;88.80;;;;;;5051666;28;20026;-75
2022/10/15 00:10:32;;;;;;;0.00;0.00;;;14.90;89.30;;;;;;5034723;28;20382;-75
2022/10/15 00:12:57;;;;;;;0.00;0.00;;;14.80;89.40;;;;;;5051440;28;20022;-76
2022/10/15 00:15:23;;;;;;;0.65;0.00;;;14.90;89.10;;;;;;5034692;28;20108;-76
2022/10/15 00:17:49;;;;;;;0.20;0.10;;;14.90;89.10;;;;;;5034358;28;20083;-76
2022/10/15 00:20:14;;;;;;;0.20;0.00;;;14.90;89.60;;;;;;5034772;28;20083;-77
2022/10/15 00:22:40;;;;;;;0.20;0.00;;;14.90;89.40;;;;;;5034270;28;20029;-77
2022/10/15 00:25:06;;;;;;;0.35;0.00;;;15.00;90.20;;;;;;5017864;28;20041;-76
2022/10/15 00:27:33;;;;;;;0.00;0.00;;;14.90;89.60;;;;;;5051278;28;20514;-77
2022/10/15 00:29:59;;;;;;;0.65;0.03;;;14.90;89.40;;;;;;5051281;28;20063;-76
2022/10/15 00:32:25;;;;;;;0.08;0.00;;;14.90;89.40;;;;;;5034448;28;20065;-76
2022/10/15 00:34:51;;;;;;;0.00;0.00;;;14.90;89.50;;;;;;5051403;28;20087;-76
2022/10/15 00:37:17;;;;;;;0.00;0.00;;;14.90;89.30;;;;;;5034760;28;20557;-75
2022/10/15 00:39:42;;;;;;;2.17;0.00;;;14.90;89.00;;;;;;5034101;28;20036;-75
2022/10/15 00:42:10;;;;;;;0.00;0.00;;;15.00;89.00;;;;;;5034893;28;20501;-75
2022/10/15 00:44:51;;;;;;;0.00;0.00;;;15.00;89.20;;;;;;5049889;28;20130;-75
2022/10/15 00:47:28;;;;;;;1.33;0.10;;;15.00;89.00;;;;;;5051160;28;20115;-75
2022/10/15 00:49:59;;;;;;;0.00;0.00;;;15.00;89.10;;;;;;5034252;28;20383;-76
2022/10/15 00:52:50;;;;;;;0.00;0.00;;;15.00;89.50;;;;;;5033832;28;20021;-75
2022/10/15 00:55:23;;;;;;;0.00;0.00;;;15.00;89.40;;;;;;5050270;28;20029;-76
2022/10/15 00:57:50;;;;;;;0.40;0.00;;;15.00;88.90;;;;;;5050944;28;20124;-77
2022/10/15 01:00:17;;;;;;;0.00;0.00;;;15.00;89.00;;;;;;5050458;28;20025;-77
2022/10/15 01:02:43;;;;;;;0.00;0.00;;;15.00;88.90;;;;;;5050353;28;20021;-77
2022/10/15 01:05:10;;;;;;;0.00;0.00;;;15.00;88.90;;;;;;5050561;28;20478;-77
2022/10/15 01:07:36;;;;;;;0.00;0.00;;;15.10;89.00;;;;;;5050823;28;20026;-77
2022/10/15 01:10:03;;;;;;;0.70;0.00;;;15.20;89.20;;;;;;5033720;28;20052;-77
2022/10/15 01:13:01;;;;;;;0.20;0.00;;;15.20;88.60;;;;;;5050288;28;20536;-76
2022/10/15 01:15:37;;;;;;;0.52;0.10;;;15.20;88.90;;;;;;4996933;28;20042;-77
2022/10/15 01:18:11;;;;;;;0.40;0.00;;;15.20;88.90;;;;;;5050516;28;20025;-77
2022/10/15 01:20:42;;;;;;;0.00;0.00;;;15.30;88.30;;;;;;5050105;28;20490;-77
2022/10/15 01:23:28;;;;;;;0.25;0.03;;;15.40;87.60;;;;;;5033569;28;20033;-78
2022/10/15 01:26:39;;;;;;;0.32;0.08;;;15.50;87.50;;;;;;5050506;28;20061;-77
2022/10/15 01:29:21;;;;;;;0.38;0.10;;;15.50;87.40;;;;;;5033485;28;20150;-77
2022/10/15 01:31:56;;;;;;;1.70;0.00;;;15.50;88.10;;;;;;5033389;28;20029;-77
2022/10/15 01:34:27;;;;;;;0.10;0.00;;;15.50;87.90;;;;;;5050227;28;20466;-76
2022/10/15 01:37:06;;;;;;;0.05;0.00;;;15.50;87.40;;;;;;5049942;28;20033;-76
2022/10/15 01:39:38;;;;;;;2.33;0.20;;;15.60;87.30;;;;;;5049787;28;20021;-76
2022/10/15 01:42:12;;;;;;;0.20;0.00;;;15.60;86.70;;;;;;5049832;28;20124;-76
2022/10/15 01:44:53;;;;;;;0.38;0.10;;;15.60;87.10;;;;;;5049963;28;20128;-75
2022/10/15 01:47:30;;;;;;;0.08;0.08;;;15.60;87.10;;;;;;5049545;28;20489;-75
2022/10/15 01:49:59;;;;;;;0.00;0.00;;;15.60;87.00;;;;;;5049775;28;20034;-76
2022/10/15 01:52:29;;;;;;;0.00;0.00;;;15.60;86.20;;;;;;5049608;28;20472;-75
2022/10/15 01:54:55;;;;;;;1.17;0.00;;;15.60;85.90;;;;;;5049065;28;20032;-75
2022/10/15 01:57:24;;;;;;;0.05;0.00;;;15.70;87.20;;;;;;5049630;28;20025;-75
2022/10/15 01:59:50;;;;;;;0.10;0.00;;;15.70;86.30;;;;;;5049595;28;20026;-75
2022/10/15 02:02:16;;;;;;;0.00;0.00;;;15.60;85.40;;;;;;5049645;28;20425;-75
2022/10/15 02:04:42;;;;;;;0.50;0.13;;;15.70;85.40;;;;;;5032719;28;20037;-75
2022/10/15 02:07:14;;;;;;;0.40;0.05;;;15.70;85.60;;;;;;5032665;28;20032;-76
2022/10/15 02:09:56;;;;;;;0.30;0.00;;;15.70;85.50;;;;;;5049551;28;20422;-76
2022/10/15 02:12:32;;;;;;;0.10;0.00;;;15.70;85.00;;;;;;5032491;28;20043;-75
2022/10/15 02:15:13;;;;;;;0.10;0.00;;;15.70;85.00;;;;;;5032540;28;20485;-75
2022/10/15 02:18:03;;;;;;;0.00;0.00;;;15.70;84.80;;;;;;5032339;28;20117;-75
2022/10/15 02:20:40;;;;;;;1.65;0.00;;;15.80;84.40;;;;;;5049379;28;20025;-75
2022/10/15 02:23:19;;;;;;;0.45;0.10;;;15.80;84.30;;;;;;5049057;28;20108;-74
2022/10/15 02:25:48;;;;;;;0.00;0.00;;;15.80;83.70;;;;;;5048919;28;20033;-77
2022/10/15 02:28:15;;;;;;;0.15;0.05;;;15.80;83.20;;;;;;5049009;28;20072;-75
2022/10/15 02:30:45;;;;;;;0.55;0.00;;;15.80;83.50;;;;;;5048931;28;20036;-75
2022/10/15 02:33:11;;;;;;;0.10;0.00;;;15.80;82.90;;;;;;5049028;28;20033;-75
2022/10/15 02:35:37;;;;;;;1.35;0.00;;;15.80;82.90;;;;;;5048913;28;20039;-75
2022/10/15 02:38:07;;;;;;;0.70;0.10;;;15.80;83.20;;;;;;5032182;28;20120;-75
2022/10/15 02:40:34;;;;;;;0.00;0.00;;;15.80;82.70;;;;;;5048435;28;20033;-75
2022/10/15 02:43:02;;;;;;;0.10;0.05;;;15.80;82.30;;;;;;5048718;28;20029;-75
2022/10/15 02:45:28;;;;;;;0.20;0.10;;;15.80;82.10;;;;;;5048701;28;20068;-75
2022/10/15 02:47:54;;;;;;;1.65;0.10;;;15.80;82.70;;;;;;5032208;28;20029;-75
2022/10/15 02:50:20;;;;;;;1.10;0.17;;;15.70;82.70;;;;;;5032035;28;20036;-75
2022/10/15 02:52:45;;;;;;;0.55;0.10;;;15.70;82.50;;;;;;5031849;28;20025;-75
2022/10/15 02:55:11;;;;;;;0.47;0.10;;;15.70;82.50;;;;;;5031790;28;20071;-75
2022/10/15 02:57:36;;;;;;;0.10;0.10;;;15.70;82.40;;;;;;5031977;28;20378;-75
2022/10/15 03:00:03;;;;;;;2.10;0.10;;;15.60;82.60;;;;;;5031934;28;20117;-75
2022/10/15 03:02:29;;;;;;;0.10;0.10;;;15.70;82.30;;;;;;5048145;28;20094;-75
2022/10/15 03:04:55;;;;;;;0.88;0.17;;;15.70;82.00;;;;;;5031507;28;20449;-75
2022/10/15 03:07:20;;;;;;;0.00;0.00;;;15.60;82.10;;;;;;5030865;28;20037;-75
2022/10/15 03:09:46;;;;;;;1.73;0.17;;;15.60;82.50;;;;;;5031847;28;20029;-75
2022/10/15 03:12:11;;;;;;;0.32;0.10;;;15.60;82.60;;;;;;5031788;28;20068;-75
2022/10/15 03:14:37;;;;;;;0.00;0.00;;;15.60;82.60;;;;;;5031865;28;20061;-75
2022/10/15 03:17:02;;;;;;;0.10;0.00;;;15.50;83.10;;;;;;5031554;28;20097;-75
2022/10/15 03:19:28;;;;;;;0.10;0.10;;;15.60;83.20;;;;;;5031855;28;20025;-75
2022/10/15 03:21:53;;;;;;;0.35;0.00;;;15.50;83.00;;;;;;5031692;28;20017;-75
2022/10/15 03:24:19;;;;;;;1.08;0.10;;;15.50;82.80;;;;;;5031359;28;20037;-75
2022/10/15 03:26:44;;;;;;;1.55;0.10;;;15.50;83.40;;;;;;5031366;28;20103;-75
2022/10/15 03:29:10;;;;;;;0.20;0.05;;;15.50;83.50;;;;;;5031537;28;20045;-75
2022/10/15 03:31:36;;;;;;;0.00;0.00;;;15.50;83.50;;;;;;5031555;28;20071;-75
2022/10/15 03:34:02;;;;;;;0.03;0.03;;;15.50;83.30;;;;;;5031580;28;20513;-75
2022/10/15 03:36:27;;;;;;;0.00;0.00;;;15.50;83.60;;;;;;5031650;28;20048;-75
2022/10/15 03:38:53;;;;;;;1.38;0.10;;;15.50;83.40;;;;;;5031071;28;20069;-75
2022/10/15 03:41:18;;;;;;;0.00;0.00;;;15.40;83.40;;;;;;5031540;28;20025;-75
2022/10/15 03:43:44;;;;;;;1.38;0.17;;;15.50;83.40;;;;;;5031307;28;20113;-75
2022/10/15 03:46:10;;;;;;;1.45;0.10;;;15.50;83.60;;;;;;5031514;28;20060;-75
2022/10/15 03:48:35;;;;;;;0.73;0.08;;;15.40;83.60;;;;;;5031557;28;20021;-75
2022/10/15 03:51:01;;;;;;;2.35;0.10;;;15.50;83.80;;;;;;5031262;28;20029;-75
2022/10/15 03:53:26;;;;;;;1.75;0.00;;;15.50;83.60;;;;;;5030921;28;20029;-75
2022/10/15 03:55:52;;;;;;;0.00;0.00;;;15.50;84.60;;;;;;5031417;28;20039;-75
2022/10/15 03:58:19;;;;;;;0.38;0.10;;;15.50;84.00;;;;;;5031346;28;20481;-76
2022/10/15 04:00:45;;;;;;;0.85;0.20;;;15.50;84.30;;;;;;5031152;28;20097;-76
2022/10/15 04:03:10;;;;;;;0.28;0.28;;;15.50;84.50;;;;;;5030969;28;20115;-75
2022/10/15 04:05:36;;;;;;;0.22;0.22;;;15.50;84.90;;;;;;5030850;28;20025;-75
2022/10/15 04:08:03;;;;;;;0.35;0.35;;;15.50;84.90;;;;;;5014501;28;20132;-75
2022/10/15 04:10:29;;;;;;;0.25;0.20;;;15.50;85.20;;;;;;5031005;28;20056;-75
2022/10/15 04:12:54;;;;;;;1.75;0.25;;;15.50;85.40;;;;;;5031017;28;20467;-75
2022/10/15 04:15:20;;;;;;;0.50;0.20;;;15.40;84.80;;;;;;5031270;28;20112;-75
2022/10/15 04:17:46;;;;;;;0.10;0.10;;;15.30;85.90;;;;;;5030969;28;20052;-75
2022/10/15 04:20:11;;;;;;;0.10;0.00;;;15.30;86.50;;;;;;5034305;28;20112;-75
2022/10/15 04:22:37;;;;;;;0.10;0.10;;;15.20;87.10;;;;;;5034327;28;20358;-76
2022/10/15 04:25:03;;;;;;;0.45;0.10;;;15.20;88.00;;;;;;5034723;28;20048;-75
2022/10/15 04:27:28;;;;;;;1.35;0.00;;;15.10;88.40;;;;;;5051188;28;20073;-75
2022/10/15 04:29:54;;;;;;;0.70;0.10;;;15.10;89.20;;;;;;5034726;28;20453;-76
2022/10/15 04:32:20;;;;;;;0.10;0.00;;;15.00;89.60;;;;;;5034469;28;20021;-76
2022/10/15 04:34:46;;;;;;;0.10;0.10;;;15.00;90.00;;;;;;5034809;28;20025;-76
2022/10/15 04:37:12;;;;;;;0.38;0.28;;;15.00;90.10;;;;;;5051167;28;20112;-76
2022/10/15 04:39:38;;;;;;;0.15;0.00;;;15.00;90.20;;;;;;5050823;28;20069;-76
2022/10/15 04:42:03;;;;;;;0.77;0.20;;;14.90;90.20;;;;;;5034614;28;20021;-76
2022/10/15 04:44:29;;;;;;;0.43;0.20;;;14.90;90.90;;;;;;5034510;28;20470;-76
2022/10/15 04:46:55;;;;;;;0.93;0.13;;;14.90;91.60;;;;;;5035334;28;20387;-76
2022/10/15 04:49:20;;;;;;;0.08;0.08;;;14.90;91.30;;;;;;5034126;28;20021;-76
2022/10/15 04:51:46;;;;;;;0.45;0.38;;;14.80;90.90;;;;;;5034318;28;20025;-76
2022/10/15 04:54:11;;;;;;;0.10;0.10;;;14.80;91.40;;;;;;5034298;28;20033;-75
2022/10/15 04:56:37;;;;;;;1.55;0.25;;;14.70;91.10;;;;;;5034009;28;20022;-75
2022/10/15 04:59:06;;;;;;;0.10;0.10;;;14.70;91.50;;;;;;5034080;28;20052;-75
2022/10/15 05:01:32;;;;;;;2.60;0.20;;;14.50;91.10;;;;;;5035278;28;20421;-76
2022/10/15 05:03:58;;;;;;;1.30;0.30;;;14.50;91.60;;;;;;5050212;28;20033;-76
2022/10/15 05:06:23;;;;;;;0.20;0.13;;;14.50;91.80;;;;;;5033633;28;20021;-76
2022/10/15 05:08:50;;;;;;;0.40;0.20;;;14.50;92.60;;;;;;5034051;28;20037;-76
2022/10/15 05:11:22;;;;;;;1.00;0.17;;;14.50;93.20;;;;;;5050744;28;20025;-77
2022/10/15 05:13:48;;;;;;;1.38;0.30;;;14.40;94.30;;;;;;5050194;28;20030;-75
2022/10/15 05:16:18;;;;;;;0.30;0.30;;;14.40;93.50;;;;;;5050288;28;20032;-75
2022/10/15 05:18:45;;;;;;;0.63;0.10;;;14.40;93.70;;;;;;5050353;28;20025;-75
2022/10/15 05:21:12;;;;;;;0.60;0.22;;;14.40;93.90;;;;;;5050437;28;20025;-75
2022/10/15 05:23:37;;;;;;;2.55;1.83;;;14.40;94.50;;;;;;5050050;28;20033;-75
2022/10/15 05:26:06;;;;;;;0.40;0.40;;;14.30;94.70;;;;;;5033275;28;20021;-75
2022/10/15 05:28:32;;;;;;;0.60;0.20;;;14.30;94.80;;;;;;5049754;28;20037;-75
2022/10/15 05:31:19;;;;;;;0.55;0.20;;;14.40;94.80;;;;;;5049157;28;20029;-75
2022/10/15 05:33:45;;;;;;;0.35;0.30;;;14.40;95.00;;;;;;5050001;28;20036;-75
2022/10/15 05:36:12;;;;;;;1.10;0.40;;;14.40;95.00;;;;;;5050049;28;20117;-76
2022/10/15 05:38:39;;;;;;;0.40;0.20;;;14.40;95.00;;;;;;5049921;28;20029;-76
2022/10/15 05:41:04;;;;;;;1.05;0.30;;;14.40;95.00;;;;;;5049796;28;20021;-75
2022/10/15 05:43:30;;;;;;;0.73;0.38;;;14.50;94.80;;;;;;5033226;28;20029;-76
2022/10/15 05:45:56;;;;;;;1.48;1.05;;;14.50;94.80;;;;;;5032656;28;20064;-76
2022/10/15 05:48:22;;;;;;;2.42;1.05;;;14.50;95.00;;;;;;5049356;28;20025;-78
2022/10/15 05:50:47;;;;;;;0.28;0.22;;;14.60;94.70;;;;;;5032893;28;20116;-78
2022/10/15 05:53:14;;;;;;;0.55;0.50;;;14.60;94.60;;;;;;5032847;28;20029;-76
2022/10/15 05:55:39;;;;;;;0.40;0.20;;;14.60;94.50;;;;;;5049425;28;20029;-76
2022/10/15 05:58:05;;;;;;;0.40;0.40;;;14.60;94.50;;;;;;5032179;28;20028;-76
2022/10/15 06:00:31;;;;;;;1.27;0.70;;;14.60;94.40;;;;;;5032389;28;20044;-76
2022/10/15 06:02:57;;;;;;;2.70;0.47;;;14.70;94.50;;;;;;5048742;28;20650;-76
2022/10/15 06:05:22;;;;;;;0.70;0.63;;;14.70;94.50;;;;;;5049068;28;20112;-76
2022/10/15 06:07:48;;;;;;;1.15;0.82;;;14.70;95.10;;;;;;5032617;28;20104;-76
2022/10/15 06:10:14;;;;;;;1.55;0.90;;;14.80;94.30;;;;;;5032526;28;20029;-76
2022/10/15 06:12:39;;;;;;;1.17;0.90;;;14.80;94.40;;;;;;5032581;28;20418;-76
2022/10/15 06:15:05;;;;;;;0.93;0.82;;;14.80;94.30;;;;;;5032050;28;20022;-77
2022/10/15 06:17:31;;;;;;;0.95;0.70;;;14.90;94.30;;;;;;5032139;28;20084;-76
2022/10/15 06:19:57;;;;;;;1.08;1.00;;;15.00;94.20;;;;;;5032120;28;20049;-76
2022/10/15 06:22:22;;;;;;;2.38;1.13;;;15.00;94.10;;;;;;5032261;28;20029;-76
2022/10/15 06:24:48;;;;;;;2.95;0.90;;;15.00;94.80;;;;;;5031488;28;20478;-78
2022/10/15 06:27:14;;;;;;;1.55;0.90;;;15.00;94.00;;;;;;5032291;28;20522;-77
2022/10/15 06:29:40;;;;;;;1.52;0.90;;;15.00;94.00;;;;;;5032140;28;20482;-75
2022/10/15 06:32:09;;;;;;;2.28;1.33;;;15.10;94.10;;;;;;5032029;28;20032;-75
2022/10/15 06:34:35;;;;;;;4.40;1.30;;;15.00;94.00;;;;;;5032287;28;20026;-75
2022/10/15 06:37:05;;;;;;;3.22;2.17;;;15.00;94.00;;;;;;5031826;28;20017;-76
2022/10/15 06:39:31;;;;;;;3.00;2.20;;;15.00;94.80;;;;;;5031991;28;20029;-75
2022/10/15 06:41:56;;;;;;;0.60;0.57;;;15.00;94.10;;;;;;5031835;28;20187;-76
2022/10/15 06:44:22;;;;;;;1.50;1.10;;;15.00;93.00;;;;;;5031550;28;20540;-77
2022/10/15 06:46:47;;;;;;;0.90;0.60;;;15.00;92.30;;;;;;5031619;28;20018;-77
2022/10/15 06:49:13;;;;;;;1.70;0.52;;;14.90;92.10;;;;;;5031774;28;20026;-75
2022/10/15 06:51:39;;;;;;;0.10;0.00;;;14.90;91.50;;;;;;5031835;28;20068;-74
2022/10/15 06:54:04;;;;;;;0.10;0.08;;;15.00;90.60;;;;;;5031261;28;20071;-74
2022/10/15 06:56:30;;;;;;;0.08;0.00;;;15.00;90.90;;;;;;5031685;28;20040;-75
2022/10/15 06:58:55;;;;;;;0.32;0.10;;;14.90;90.00;;;;;;5030839;28;20018;-74
2022/10/15 07:01:21;;;;;;;0.03;0.03;;;15.00;90.60;;;;;;5031406;28;20032;-74
2022/10/15 07:03:50;;;;;;;0.25;0.20;;;15.00;90.40;;;;;;5031429;28;20563;-76
2022/10/15 07:06:16;;;;;;;0.20;0.20;;;15.00;89.80;;;;;;5031676;28;20432;-75
2022/10/15 07:08:43;;;;;;;0.40;0.35;;;15.00;89.00;;;;;;5031855;28;20048;-75
2022/10/15 07:11:09;;;;;;;0.63;0.28;;;15.00;89.50;;;;;;5031330;28;20481;-76
2022/10/15 07:13:35;;;;;;;0.90;0.10;;;15.00;88.80;;;;;;5031591;28;20101;-74
2022/10/15 07:16:09;;;;;;;0.60;0.10;;;15.10;87.70;;;;;;5031424;28;20022;-75
2022/10/15 07:18:35;;;;;;;0.98;0.03;;;15.20;87.30;;;;;;5031209;28;20025;-73
2022/10/15 07:21:02;;;;;;;0.08;0.08;;;15.20;86.00;;;;;;5031342;28;20028;-73
2022/10/15 07:23:28;;;;;;;0.73;0.57;;;15.40;84.70;;;;;;5030992;28;20033;-74
2022/10/15 07:25:57;;;;;;;0.17;0.10;;;15.40;84.80;;;;;;5031178;28;20555;-74
2022/10/15 07:28:23;;;;;;;0.43;0.20;;;15.40;84.20;;;;;;5031360;28;20132;-75
2022/10/15 07:30:48;;;;;;;0.43;0.10;;;15.50;84.10;;;;;;5031580;28;20057;-74
2022/10/15 07:33:15;;;;;;;0.47;0.20;;;15.50;83.90;;;;;;5030880;28;20578;-74
2022/10/15 07:35:40;;;;;;;0.50;0.10;;;15.60;83.10;;;;;;5030876;28;20033;-74
2022/10/15 07:38:06;;;;;;;0.45;0.10;;;15.70;83.00;;;;;;5030954;28;20022;-75
2022/10/15 07:40:32;;;;;;;0.68;0.15;;;15.80;82.60;;;;;;5030721;28;20022;-74
2022/10/15 07:42:58;;;;;;;2.92;0.85;;;15.90;81.90;;;;;;5030985;28;20052;-74
2022/10/15 07:45:26;;;;;;;0.52;0.45;;;16.00;82.30;;;;;;5031241;28;20163;-74
2022/10/15 07:47:52;;;;;;;0.52;0.13;;;16.10;81.10;;;;;;5031291;28;20029;-74
2022/10/15 07:50:19;;;;;;;4.05;0.30;;;16.10;79.20;;;;;;5031229;28;20482;-74
2022/10/15 07:52:45;;;;;;;0.55;0.10;;;16.10;78.90;;;;;;5030729;28;20043;-74
2022/10/15 07:55:11;;;;;;;0.32;0.22;;;16.20;80.00;;;;;;5034332;28;20034;-76
2022/10/15 07:57:37;;;;;;;1.85;0.30;;;16.30;79.30;;;;;;5034289;28;20036;-75
2022/10/15 08:00:05;;;;;;;0.73;0.45;;;16.20;78.50;;;;;;5035985;28;20021;-75
2022/10/15 08:02:31;;;;;;;1.35;0.43;;;16.20;78.10;;;;;;5034354;28;20021;-75
2022/10/15 08:04:57;;;;;;;0.43;0.38;;;16.20;77.50;;;;;;5034316;28;20068;-75
2022/10/15 08:07:22;;;;;;;0.90;0.40;;;16.20;76.30;;;;;;5034513;28;20453;-75
2022/10/15 08:09:48;;;;;;;1.98;0.70;;;16.30;76.80;;;;;;5034403;28;20033;-75
2022/10/15 08:12:14;;;;;;;1.10;0.30;;;16.40;76.50;;;;;;5034272;28;20494;-75
2022/10/15 08:14:39;;;;;;;1.20;0.40;;;16.40;75.40;;;;;;5034389;28;20029;-76
2022/10/15 08:17:05;;;;;;;0.57;0.40;;;16.40;76.60;;;;;;5034568;28;20029;-75
2022/10/15 08:19:31;;;;;;;1.17;0.45;;;16.30;76.50;;;;;;5034354;28;20021;-75
2022/10/15 08:21:57;;;;;;;0.85;0.40;;;16.20;76.50;;;;;;5037586;28;20463;-75
2022/10/15 08:24:23;;;;;;;1.90;0.40;;;16.20;76.40;;;;;;5034907;28;20056;-77
2022/10/15 08:26:48;;;;;;;3.65;0.88;;;16.20;76.30;;;;;;5034015;28;20482;-74
2022/10/15 08:29:14;;;;;;;2.60;0.35;;;16.20;76.90;;;;;;5034067;28;20382;-75
2022/10/15 08:31:40;;;;;;;1.63;0.60;;;16.20;76.00;;;;;;5035242;28;20048;-75
2022/10/15 08:34:07;;;;;;;2.30;0.47;;;16.30;75.60;;;;;;5034152;28;20036;-75
2022/10/15 08:36:32;;;;;;;2.92;0.43;;;16.40;75.30;;;;;;5034131;28;20025;-75
2022/10/15 08:38:58;;;;;;;1.92;0.50;;;16.40;74.80;;;;;;5033750;28;20021;-75
2022/10/15 08:41:47;;;;;;;1.55;0.70;;;16.50;73.70;;;;;;5033784;28;20032;-75
2022/10/15 08:44:17;;;;;;;1.88;0.63;;;16.50;74.10;;;;;;5033718;28;20038;-75
2022/10/15 08:46:47;;;;;;;2.83;0.77;;;16.40;74.10;;;;;;5033017;28;20092;-75
2022/10/15 08:49:30;;;;;;;3.35;0.40;;;16.50;74.80;;;;;;5033670;28;20017;-75
2022/10/15 08:52:05;;;;;;;4.55;0.63;;;16.50;74.70;;;;;;5033678;28;20086;-75
2022/10/15 08:54:34;;;;;;;2.45;0.70;;;16.50;73.30;;;;;;5033542;28;20029;-75
2022/10/15 08:57:14;;;;;;;2.45;0.73;;;16.60;74.40;;;;;;5033684;28;20026;-75
2022/10/15 08:59:55;;;;;;;2.25;0.90;;;16.60;73.30;;;;;;5033811;28;20065;-76
2022/10/15 09:02:35;;;;;;;1.95;0.50;;;16.60;73.80;;;;;;5033676;28;20468;-77
2022/10/15 09:05:47;;;;;;;3.13;0.75;;;16.80;73.00;;;;;;5032579;28;20128;-77
2022/10/15 09:08:31;;;;;;;1.73;0.52;;;17.00;72.90;;;;;;5025805;28;20069;-77
2022/10/15 09:11:01;;;;;;;2.92;0.38;;;17.10;71.70;;;;;;5033348;28;20462;-77
2022/10/15 09:13:34;;;;;;;4.15;0.50;;;17.00;71.60;;;;;;5033288;28;20021;-77
2022/10/15 09:16:04;;;;;;;1.48;0.43;;;16.90;71.50;;;;;;5033433;28;20067;-76
2022/10/15 09:18:35;;;;;;;2.70;0.70;;;16.80;71.80;;;;;;5032630;28;20033;-76
2022/10/15 09:21:04;;;;;;;2.25;0.50;;;17.00;71.30;;;;;;5033198;28;20033;-77
2022/10/15 09:23:32;;;;;;;5.10;0.90;;;17.00;71.30;;;;;;5033235;28;20063;-77
2022/10/15 09:26:27;;;;;;;1.42;0.43;;;16.90;70.80;;;;;;5032811;28;20060;-76
2022/10/15 09:28:58;;;;;;;2.88;0.68;;;16.80;71.40;;;;;;5025433;28;20064;-78
2022/10/15 09:31:28;;;;;;;3.33;0.68;;;16.80;72.50;;;;;;5032617;28;20032;-76
2022/10/15 09:34:20;;;;;;;3.75;0.60;;;16.80;71.80;;;;;;5031562;28;20025;-75
2022/10/15 09:36:51;;;;;;;2.25;0.70;;;16.80;72.00;;;;;;5031432;28;20021;-76
2022/10/15 09:39:37;;;;;;;2.72;0.68;;;16.80;72.10;;;;;;5030411;28;20090;-76
2022/10/15 09:42:18;;;;;;;3.97;1.00;;;17.00;72.60;;;;;;5028127;28;20431;-77
2022/10/15 09:44:45;;;;;;;2.72;0.65;;;16.90;72.00;;;;;;5031175;28;20030;-75
2022/10/15 09:47:27;;;;;;;3.20;0.60;;;16.80;72.20;;;;;;5032491;28;20470;-75
2022/10/15 09:49:53;;;;;;;1.92;0.50;;;16.80;72.60;;;;;;5029497;28;20116;-75
2022/10/15 09:52:52;;;;;;;3.78;0.73;;;16.80;73.30;;;;;;5032270;28;20109;-75
2022/10/15 09:55:46;;;;;;;5.22;0.95;;;16.90;73.00;;;;;;5012473;28;20068;-75
2022/10/15 09:58:24;;;;;;;4.65;1.08;;;16.90;72.40;;;;;;5012265;28;20831;-76
2022/10/15 10:00:55;;;;;;;2.90;0.82;;;16.90;73.00;;;;;;5012460;28;20026;-77
2022/10/15 10:03:23;;;;;;;3.38;0.60;;;17.00;73.80;;;;;;5012508;28;20030;-77
2022/10/15 10:05:49;;;;;;;3.58;0.82;;;17.20;73.70;;;;;;5012242;28;20076;-76
2022/10/15 10:08:15;;;;;;;2.10;0.70;;;17.60;72.80;;;;;;5012594;28;20053;-77
2022/10/15 10:10:41;;;;;;;2.47;0.65;;;17.60;70.30;;;;;;5012571;28;20573;-77
2022/10/15 10:13:25;;;;;;;4.75;0.70;;;17.80;70.50;;;;;;5012443;28;20042;-77
2022/10/15 10:15:53;;;;;;;3.00;0.73;;;17.80;70.90;;;;;;5012390;28;20022;-76
2022/10/15 10:18:22;;;;;;;1.63;0.55;;;17.80;71.10;;;;;;5011726;28;20022;-75
2022/10/15 10:20:58;;;;;;;1.30;0.65;;;17.80;70.10;;;;;;5012376;28;20117;-75
2022/10/15 10:23:36;;;;;;;1.65;0.43;;;17.70;69.50;;;;;;5012329;28;20032;-77
2022/10/15 10:26:09;;;;;;;3.35;0.60;;;17.70;70.40;;;;;;5012339;28;20022;-77
2022/10/15 10:28:55;;;;;;;1.65;0.93;;;17.80;69.80;;;;;;5011727;28;20044;-77
2022/10/15 10:31:30;;;;;;;2.40;0.70;;;17.90;69.90;;;;;;5012355;28;20030;-77
2022/10/15 10:33:59;;;;;;;1.15;0.40;;;18.00;69.30;;;;;;5011961;28;20024;-77
2022/10/15 10:36:28;;;;;;;4.63;0.50;;;18.00;69.80;;;;;;5011960;28;20053;-77
2022/10/15 10:39:12;;;;;;;1.33;0.65;;;17.80;69.70;;;;;;5012010;28;20022;-77
2022/10/15 10:41:54;;;;;;;2.47;0.45;;;17.80;70.80;;;;;;5013185;28;20025;-76
2022/10/15 10:44:28;;;;;;;3.00;0.65;;;17.70;70.40;;;;;;5011503;28;20041;-76
2022/10/15 10:47:21;;;;;;;4.07;0.80;;;17.80;71.00;;;;;;5011649;28;20073;-76
2022/10/15 10:49:49;;;;;;;4.55;0.50;;;17.90;71.50;;;;;;5009744;28;20036;-75
2022/10/15 10:52:36;;;;;;;5.47;0.70;;;17.80;71.00;;;;;;5011969;28;20026;-75
2022/10/15 10:55:21;;;;;;;3.28;0.90;;;17.70;71.80;;;;;;5011665;28;20501;-75
2022/10/15 10:57:55;;;;;;;1.92;0.50;;;17.80;72.40;;;;;;5011534;28;20026;-75
2022/10/15 11:00:38;;;;;;;5.32;0.80;;;17.70;71.60;;;;;;5011338;28;20075;-77
2022/10/15 11:03:06;;;;;;;2.00;0.57;;;17.60;72.50;;;;;;5011363;28;20359;-75
2022/10/15 11:05:36;;;;;;;3.63;0.63;;;17.50;73.20;;;;;;5011537;28;20513;-75
2022/10/15 11:08:14;;;;;;;6.63;0.90;;;17.40;73.20;;;;;;5011501;28;20018;-75
2022/10/15 11:10:50;;;;;;;3.28;0.50;;;17.40;71.40;;;;;;5011578;28;20037;-75
2022/10/15 11:13:49;;;;;;;6.30;0.85;;;17.40;71.00;;;;;;5011318;28;20018;-75
2022/10/15 11:16:47;;;;;;;3.03;0.47;;;17.40;70.80;;;;;;5011492;28;20057;-75
2022/10/15 11:19:34;;;;;;;2.67;0.30;;;17.60;70.10;;;;;;5010937;28;20099;-75
2022/10/15 11:22:19;;;;;;;2.72;0.68;;;17.80;68.90;;;;;;5010928;28;20372;-76
2022/10/15 11:25:04;;;;;;;2.05;0.60;;;18.20;69.10;;;;;;5011592;28;20038;-77
2022/10/15 11:28:11;;;;;;;1.75;0.57;;;18.70;67.80;;;;;;5010568;28;20067;-77
2022/10/15 11:30:53;;;;;;;3.42;0.50;;;18.90;66.90;;;;;;5004178;28;20040;-77
2022/10/15 11:33:28;;;;;;;1.70;0.52;;;19.40;65.30;;;;;;5015009;28;20022;-77
2022/10/15 11:36:18;;;;;;;2.05;0.40;;;19.50;63.60;;;;;;5014816;28;20076;-77
2022/10/15 11:38:58;;;;;;;1.85;0.40;;;19.40;63.60;;;;;;5015044;28;20363;-78
2022/10/15 11:41:57;;;;;;;4.43;0.60;;;19.50;63.00;;;;;;5014748;28;20030;-76
2022/10/15 11:44:44;;;;;;;4.57;0.47;;;19.60;63.50;;;;;;5014665;28;20523;-76
2022/10/15 11:47:24;;;;;;;0.88;0.30;;;19.80;61.40;;;;;;5015231;28;20057;-76
2022/10/15 11:50:01;;;;;;;3.42;0.65;;;19.90;60.90;;;;;;5014979;28;20057;-76
2022/10/15 11:52:38;;;;;;;1.70;0.50;;;19.80;61.10;;;;;;5014882;28;20120;-76
2022/10/15 11:55:16;;;;;;;1.70;0.50;;;19.40;61.00;;;;;;5014991;28;20018;-77
2022/10/15 11:57:45;;;;;;;3.08;0.57;;;19.50;62.80;;;;;;5014731;28;20026;-77
2022/10/15 12:00:30;;;;;;;3.30;0.50;;;20.20;61.00;;;;;;5014752;28;20026;-78
2022/10/15 12:03:00;;;;;;;;;;;20.40;57.90;;;;;;5014585;28;20030;-76
2022/10/15 12:05:52;;;;;;;1.63;0.20;;;20.30;58.90;;;;;;5014858;28;19921;-77
2022/10/15 12:08:20;;;;;;;1.50;0.50;;;20.50;59.50;;;;;;5014421;28;20037;-78
2022/10/15 12:11:15;;;;;;;1.13;0.30;;;21.00;56.90;;;;;;5014340;28;20033;-77
2022/10/15 12:13:59;;;;;;;0.55;0.40;;;21.30;56.40;;;;;;5014519;28;20018;-77
2022/10/15 12:16:29;;;;;;;1.13;0.80;;;20.90;56.20;;;;;;5014277;28;20478;-77
2022/10/15 12:19:10;;;;;;;1.25;0.60;;;20.50;58.30;;;;;;5014031;28;20383;-77
2022/10/15 12:21:42;;;;;;;3.03;1.05;;;20.20;58.50;;;;;;5014653;28;20117;-76
2022/10/15 12:24:37;;;;;;;2.15;0.68;;;19.80;60.10;;;;;;5014197;28;20115;-76
2022/10/15 12:27:18;;;;;;;0.73;0.65;;;19.70;60.60;;;;;;5005228;28;20111;-76
2022/10/15 12:30:19;;;;;;;1.45;0.70;;;20.40;58.10;;;;;;5014498;28;20116;-76
2022/10/15 12:32:47;;;;;;;1.35;0.85;;;20.60;58.00;;;;;;5007330;28;20034;-76
2022/10/15 12:35:27;;;;;;;0.60;0.52;;;20.80;58.40;;;;;;5014212;28;20064;-77
2022/10/15 12:37:53;;;;;;;0.65;0.40;;;21.00;57.20;;;;;;5014454;28;20034;-76
2022/10/15 12:40:27;;;;;;;1.00;0.43;;;20.80;55.90;;;;;;5030811;28;20157;-76
2022/10/15 12:42:59;;;;;;;3.15;0.40;;;20.60;56.40;;;;;;5015608;28;20022;-76
2022/10/15 12:45:34;;;;;;;0.88;0.32;;;20.30;59.40;;;;;;5015052;28;20033;-76
2022/10/15 12:48:03;;;;;;;0.35;0.35;;;19.90;58.60;;;;;;5014210;28;20164;-76
2022/10/15 12:50:30;;;;;;;0.68;0.35;;;19.50;60.70;;;;;;5013815;28;20037;-76
2022/10/15 12:53:23;;;;;;;1.70;0.30;;;19.20;62.00;;;;;;5013950;28;20108;-76
2022/10/15 12:56:09;;;;;;;2.13;0.50;;;19.00;63.30;;;;;;5014012;28;20033;-76
2022/10/15 12:58:36;;;;;;;0.75;0.60;;;18.80;64.30;;;;;;5013718;28;20054;-76
2022/10/15 13:01:27;;;;;;;2.65;0.55;;;18.70;63.80;;;;;;5013663;28;20034;-76
2022/10/15 13:03:57;;;;;;;2.67;0.20;;;18.60;64.40;;;;;;5013833;28;20038;-76
2022/10/15 13:06:35;;;;;;;3.05;0.63;;;18.60;66.40;;;;;;5013964;28;20064;-76
2022/10/15 13:09:09;;;;;;;0.93;0.40;;;18.30;65.90;;;;;;5014059;28;20036;-75